sensor_id;sensor_type;location;lat;lon;timestamp;pressure;altitude;pressure_sealevel;temperature;humidity
68859;BME280;55864;49.238;8.092;2023-02-13T00:00:01;101454.78;;;5.11;85.33
68859;BME280;55864;49.238;8.092;2023-02-13T00:02:05;101453.03;;;5.12;85.76
68859;BME280;55864;49.238;8.092;2023-02-13T00:04:05;101454.75;;;5.13;85.43
68859;BME280;55864;49.238;8.092;2023-02-13T00:06:06;101455.56;;;5.13;85.44
68859;BME280;55864;49.238;8.092;2023-02-13T00:08:07;101453.75;;;5.15;85.92
68859;BME280;55864;49.238;8.092;2023-02-13T00:10:08;101457.22;;;5.16;85.32
68859;BME280;55864;49.238;8.092;2023-02-13T00:12:09;101443.47;;;5.12;85.65
68859;BME280;55864;49.238;8.092;2023-02-13T00:14:11;101449.56;;;5.11;85.05
68859;BME280;55864;49.238;8.092;2023-02-13T00:16:12;101440.19;;;5.07;85.30
68859;BME280;55864;49.238;8.092;2023-02-13T00:18:15;101448.84;;;5.08;85.10
68859;BME280;55864;49.238;8.092;2023-02-13T00:20:15;101442.75;;;5.09;85.15
68859;BME280;55864;49.238;8.092;2023-02-13T00:22:16;101445.28;;;5.10;85.62
68859;BME280;55864;49.238;8.092;2023-02-13T00:24:16;101440.06;;;5.10;85.21
68859;BME280;55864;49.238;8.092;2023-02-13T00:26:17;101443.63;;;5.08;85.16
68859;BME280;55864;49.238;8.092;2023-02-13T00:28:18;101440.19;;;5.07;84.40
68859;BME280;55864;49.238;8.092;2023-02-13T00:30:21;101438.50;;;5.06;85.16
68859;BME280;55864;49.238;8.092;2023-02-13T00:32:21;101430.63;;;5.08;84.65
68859;BME280;55864;49.238;8.092;2023-02-13T00:34:22;101437.53;;;5.09;84.73
68859;BME280;55864;49.238;8.092;2023-02-13T00:36:22;101432.31;;;5.09;85.21
68859;BME280;55864;49.238;8.092;2023-02-13T00:38:24;101438.44;;;5.08;84.84
68859;BME280;55864;49.238;8.092;2023-02-13T00:40:25;101445.38;;;5.07;84.48
68859;BME280;55864;49.238;8.092;2023-02-13T00:42:25;101442.03;;;5.05;84.78
68859;BME280;55864;49.238;8.092;2023-02-13T00:44:26;101440.38;;;5.03;85.28
68859;BME280;55864;49.238;8.092;2023-02-13T00:46:29;101441.22;;;5.03;85.16
68859;BME280;55864;49.238;8.092;2023-02-13T00:48:31;101435.22;;;5.01;85.03
68859;BME280;55864;49.238;8.092;2023-02-13T00:50:32;101445.69;;;5.00;84.93
68859;BME280;55864;49.238;8.092;2023-02-13T00:52:32;101443.88;;;5.02;85.19
68859;BME280;55864;49.238;8.092;2023-02-13T00:54:33;101449.06;;;5.02;84.79
68859;BME280;55864;49.238;8.092;2023-02-13T00:56:34;101447.41;;;5.01;85.13
68859;BME280;55864;49.238;8.092;2023-02-13T00:58:34;101448.28;;;5.00;84.65
68859;BME280;55864;49.238;8.092;2023-02-13T01:00:35;101451.88;;;4.97;84.54
68859;BME280;55864;49.238;8.092;2023-02-13T01:02:37;101445.81;;;4.97;85.05
68859;BME280;55864;49.238;8.092;2023-02-13T01:04:37;101454.53;;;4.96;85.06
68859;BME280;55864;49.238;8.092;2023-02-13T01:06:38;101452.81;;;4.95;84.64
68859;BME280;55864;49.238;8.092;2023-02-13T01:08:40;101452.75;;;4.96;85.28
68859;BME280;55864;49.238;8.092;2023-02-13T01:10:41;101451.09;;;4.95;84.95
68859;BME280;55864;49.238;8.092;2023-02-13T01:12:42;101455.50;;;4.93;84.56
68859;BME280;55864;49.238;8.092;2023-02-13T01:14:42;101461.59;;;4.92;84.87
68859;BME280;55864;49.238;8.092;2023-02-13T01:16:44;101459.19;;;4.88;84.64
68859;BME280;55864;49.238;8.092;2023-02-13T01:18:46;101455.72;;;4.87;84.22
68859;BME280;55864;49.238;8.092;2023-02-13T01:20:55;101454.03;;;4.86;84.65
68859;BME280;55864;49.238;8.092;2023-02-13T01:22:57;101455.00;;;4.84;83.75
68859;BME280;55864;49.238;8.092;2023-02-13T01:24:58;101458.50;;;4.83;84.03
68859;BME280;55864;49.238;8.092;2023-02-13T01:27:01;101453.31;;;4.83;83.89
68859;BME280;55864;49.238;8.092;2023-02-13T01:29:02;101455.00;;;4.84;83.96
68859;BME280;55864;49.238;8.092;2023-02-13T01:31:03;101455.91;;;4.83;84.19
68859;BME280;55864;49.238;8.092;2023-02-13T01:33:03;101449.91;;;4.81;84.01
68859;BME280;55864;49.238;8.092;2023-02-13T01:35:06;101453.41;;;4.79;83.75
68859;BME280;55864;49.238;8.092;2023-02-13T01:37:07;101442.19;;;4.77;84.58
68859;BME280;55864;49.238;8.092;2023-02-13T01:39:10;101442.13;;;4.79;84.13
68859;BME280;55864;49.238;8.092;2023-02-13T01:41:11;101450.88;;;4.78;84.66
68859;BME280;55864;49.238;8.092;2023-02-13T01:43:12;101447.31;;;4.81;84.75
68859;BME280;55864;49.238;8.092;2023-02-13T01:45:24;101443.66;;;4.85;84.39
68859;BME280;55864;49.238;8.092;2023-02-13T01:47:27;101449.00;;;4.82;83.69
68859;BME280;55864;49.238;8.092;2023-02-13T01:49:28;101446.59;;;4.75;83.97
68859;BME280;55864;49.238;8.092;2023-02-13T01:51:32;101445.81;;;4.73;83.89
68859;BME280;55864;49.238;8.092;2023-02-13T01:53:38;101442.38;;;4.73;84.15
68859;BME280;55864;49.238;8.092;2023-02-13T01:55:46;101438.13;;;4.70;83.86
68859;BME280;55864;49.238;8.092;2023-02-13T01:57:51;101443.44;;;4.67;83.85
68859;BME280;55864;49.238;8.092;2023-02-13T01:59:56;101439.22;;;4.65;84.80
68859;BME280;55864;49.238;8.092;2023-02-13T02:02:01;101442.69;;;4.64;84.54
68859;BME280;55864;49.238;8.092;2023-02-13T02:04:06;101441.88;;;4.63;84.17
68859;BME280;55864;49.238;8.092;2023-02-13T02:06:16;101440.94;;;4.64;84.88
68859;BME280;55864;49.238;8.092;2023-02-13T02:08:19;101446.16;;;4.64;84.84
68859;BME280;55864;49.238;8.092;2023-02-13T02:10:26;101444.41;;;4.65;84.77
68859;BME280;55864;49.238;8.092;2023-02-13T02:12:30;101447.00;;;4.65;84.32
68859;BME280;55864;49.238;8.092;2023-02-13T02:14:33;101445.31;;;4.64;84.40
68859;BME280;55864;49.238;8.092;2023-02-13T02:16:34;101451.50;;;4.61;84.12
68859;BME280;55864;49.238;8.092;2023-02-13T02:18:37;101443.84;;;4.57;84.84
68859;BME280;55864;49.238;8.092;2023-02-13T02:20:57;101441.28;;;4.55;84.69
68859;BME280;55864;49.238;8.092;2023-02-13T02:26:22;101437.75;;;4.58;83.51
68859;BME280;55864;49.238;8.092;2023-02-13T02:28:59;101433.56;;;4.54;83.61
68859;BME280;55864;49.238;8.092;2023-02-13T02:33:59;101424.75;;;4.56;84.37
68859;BME280;55864;49.238;8.092;2023-02-13T02:36:20;101423.00;;;4.57;83.88
68859;BME280;55864;49.238;8.092;2023-02-13T02:38:33;101430.03;;;4.55;83.70
68859;BME280;55864;49.238;8.092;2023-02-13T02:40:45;101418.03;;;4.51;83.91
68859;BME280;55864;49.238;8.092;2023-02-13T02:42:59;101419.81;;;4.50;83.34
68859;BME280;55864;49.238;8.092;2023-02-13T02:45:07;101420.03;;;4.44;83.30
68859;BME280;55864;49.238;8.092;2023-02-13T02:47:18;101416.69;;;4.41;83.37
68859;BME280;55864;49.238;8.092;2023-02-13T02:49:21;101427.91;;;4.41;83.33
68859;BME280;55864;49.238;8.092;2023-02-13T02:51:23;101418.44;;;4.40;83.72
68859;BME280;55864;49.238;8.092;2023-02-13T02:53:31;101417.50;;;4.41;84.24
68859;BME280;55864;49.238;8.092;2023-02-13T02:55:37;101423.50;;;4.43;84.60
68859;BME280;55864;49.238;8.092;2023-02-13T02:57:44;101425.25;;;4.43;84.45
68859;BME280;55864;49.238;8.092;2023-02-13T02:59:49;101416.63;;;4.42;84.70
68859;BME280;55864;49.238;8.092;2023-02-13T03:01:53;101421.84;;;4.42;83.73
68859;BME280;55864;49.238;8.092;2023-02-13T03:03:55;101419.28;;;4.41;84.58
68859;BME280;55864;49.238;8.092;2023-02-13T03:06:00;101418.50;;;4.39;83.79
68859;BME280;55864;49.238;8.092;2023-02-13T03:08:02;101413.38;;;4.36;83.74
68859;BME280;55864;49.238;8.092;2023-02-13T03:10:06;101429.91;;;4.35;83.94
68859;BME280;55864;49.238;8.092;2023-02-13T03:12:08;101428.19;;;4.34;84.60
68859;BME280;55864;49.238;8.092;2023-02-13T03:14:10;101420.34;;;4.35;84.38
68859;BME280;55864;49.238;8.092;2023-02-13T03:16:16;101426.44;;;4.34;83.94
68859;BME280;55864;49.238;8.092;2023-02-13T03:18:18;101423.00;;;4.34;84.86
68859;BME280;55864;49.238;8.092;2023-02-13T03:20:23;101433.41;;;4.34;83.96
68859;BME280;55864;49.238;8.092;2023-02-13T03:22:36;101433.59;;;4.29;84.07
68859;BME280;55864;49.238;8.092;2023-02-13T03:24:46;101429.31;;;4.27;84.55
68859;BME280;55864;49.238;8.092;2023-02-13T03:26:53;101442.19;;;4.31;84.02
68859;BME280;55864;49.238;8.092;2023-02-13T03:29:06;101438.59;;;4.34;83.89
68859;BME280;55864;49.238;8.092;2023-02-13T03:31:16;101442.84;;;4.36;84.39
68859;BME280;55864;49.238;8.092;2023-02-13T03:33:29;101441.13;;;4.35;84.23
68859;BME280;55864;49.238;8.092;2023-02-13T03:35:40;101443.94;;;4.31;83.45
68859;BME280;55864;49.238;8.092;2023-02-13T03:37:49;101445.66;;;4.30;83.98
68859;BME280;55864;49.238;8.092;2023-02-13T03:39:59;101455.22;;;4.30;83.35
68859;BME280;55864;49.238;8.092;2023-02-13T03:42:03;101454.53;;;4.25;83.74
68859;BME280;55864;49.238;8.092;2023-02-13T03:44:11;101452.78;;;4.25;84.35
68859;BME280;55864;49.238;8.092;2023-02-13T03:46:14;101452.75;;;4.27;84.23
68859;BME280;55864;49.238;8.092;2023-02-13T03:48:17;101454.38;;;4.29;83.89
68859;BME280;55864;49.238;8.092;2023-02-13T03:50:18;101453.41;;;4.32;83.65
68859;BME280;55864;49.238;8.092;2023-02-13T03:52:23;101458.69;;;4.30;84.01
68859;BME280;55864;49.238;8.092;2023-02-13T03:54:32;101458.78;;;4.27;83.77
68859;BME280;55864;49.238;8.092;2023-02-13T03:56:38;101452.78;;;4.25;83.99
68859;BME280;55864;49.238;8.092;2023-02-13T03:58:42;101450.28;;;4.22;84.08
68859;BME280;55864;49.238;8.092;2023-02-13T04:00:47;101458.16;;;4.21;83.56
68859;BME280;55864;49.238;8.092;2023-02-13T04:02:56;101459.94;;;4.19;83.72
68859;BME280;55864;49.238;8.092;2023-02-13T04:05:01;101457.28;;;4.20;83.14
68859;BME280;55864;49.238;8.092;2023-02-13T04:07:06;101459.00;;;4.21;82.85
68859;BME280;55864;49.238;8.092;2023-02-13T04:09:08;101460.66;;;4.24;83.60
68859;BME280;55864;49.238;8.092;2023-02-13T04:11:14;101459.69;;;4.26;83.52
68859;BME280;55864;49.238;8.092;2023-02-13T04:13:21;101460.53;;;4.27;83.30
68859;BME280;55864;49.238;8.092;2023-02-13T04:15:28;101456.28;;;4.24;82.78
68859;BME280;55864;49.238;8.092;2023-02-13T04:17:34;101460.81;;;4.19;82.83
68859;BME280;55864;49.238;8.092;2023-02-13T04:19:37;101461.81;;;4.15;82.99
68859;BME280;55864;49.238;8.092;2023-02-13T04:21:39;101460.13;;;4.14;83.02
68859;BME280;55864;49.238;8.092;2023-02-13T04:23:40;101454.75;;;4.19;83.21
68859;BME280;55864;49.238;8.092;2023-02-13T04:25:42;101456.59;;;4.15;82.90
68859;BME280;55864;49.238;8.092;2023-02-13T04:27:44;101452.34;;;4.13;82.30
68859;BME280;55864;49.238;8.092;2023-02-13T04:29:48;101460.28;;;4.10;82.68
68859;BME280;55864;49.238;8.092;2023-02-13T04:31:51;101459.53;;;4.06;82.61
68859;BME280;55864;49.238;8.092;2023-02-13T04:33:55;101459.59;;;4.05;82.73
68859;BME280;55864;49.238;8.092;2023-02-13T04:35:55;101452.66;;;4.04;82.65
68859;BME280;55864;49.238;8.092;2023-02-13T04:37:56;101460.41;;;4.05;82.31
68859;BME280;55864;49.238;8.092;2023-02-13T04:39:56;101457.88;;;4.04;83.06
68859;BME280;55864;49.238;8.092;2023-02-13T04:41:57;101450.00;;;4.05;82.28
68859;BME280;55864;49.238;8.092;2023-02-13T04:43:59;101448.22;;;4.07;82.30
68859;BME280;55864;49.238;8.092;2023-02-13T04:46:00;101449.72;;;4.14;82.68
68859;BME280;55864;49.238;8.092;2023-02-13T04:48:00;101447.94;;;4.15;82.70
68859;BME280;55864;49.238;8.092;2023-02-13T04:50:01;101449.88;;;4.10;81.75
68859;BME280;55864;49.238;8.092;2023-02-13T04:52:01;101445.66;;;4.06;82.17
68859;BME280;55864;49.238;8.092;2023-02-13T04:54:02;101441.41;;;4.03;82.26
68859;BME280;55864;49.238;8.092;2023-02-13T04:56:03;101444.81;;;4.05;82.12
68859;BME280;55864;49.238;8.092;2023-02-13T04:58:04;101440.41;;;4.07;81.79
68859;BME280;55864;49.238;8.092;2023-02-13T05:00:07;101440.41;;;4.07;82.44
68859;BME280;55864;49.238;8.092;2023-02-13T05:02:08;101444.81;;;4.05;81.96
68859;BME280;55864;49.238;8.092;2023-02-13T05:04:08;101444.00;;;4.03;82.30
68859;BME280;55864;49.238;8.092;2023-02-13T05:06:09;101450.06;;;4.04;82.95
68859;BME280;55864;49.238;8.092;2023-02-13T05:08:09;101446.59;;;4.05;82.62
68859;BME280;55864;49.238;8.092;2023-02-13T05:10:11;101446.66;;;4.02;82.33
68859;BME280;55864;49.238;8.092;2023-02-13T05:12:12;101445.84;;;4.01;82.17
68859;BME280;55864;49.238;8.092;2023-02-13T05:14:12;101442.38;;;4.01;81.98
68859;BME280;55864;49.238;8.092;2023-02-13T05:16:14;101440.78;;;3.97;81.90
68859;BME280;55864;49.238;8.092;2023-02-13T05:18:15;101436.53;;;3.94;82.08
68859;BME280;55864;49.238;8.092;2023-02-13T05:20:16;101435.72;;;3.94;82.21
68859;BME280;55864;49.238;8.092;2023-02-13T05:22:17;101443.53;;;3.92;81.84
68859;BME280;55864;49.238;8.092;2023-02-13T05:24:17;101437.34;;;3.96;82.03
68859;BME280;55864;49.238;8.092;2023-02-13T05:26:18;101439.06;;;3.97;81.61
68859;BME280;55864;49.238;8.092;2023-02-13T05:28:18;101438.06;;;4.00;81.74
68859;BME280;55864;49.238;8.092;2023-02-13T05:30:19;101440.72;;;3.98;81.47
68859;BME280;55864;49.238;8.092;2023-02-13T05:32:21;101436.44;;;3.97;81.26
68859;BME280;55864;49.238;8.092;2023-02-13T05:34:24;101443.50;;;3.94;81.72
68859;BME280;55864;49.238;8.092;2023-02-13T05:36:25;101444.50;;;3.90;81.59
68859;BME280;55864;49.238;8.092;2023-02-13T05:38:25;101441.94;;;3.88;81.84
68859;BME280;55864;49.238;8.092;2023-02-13T05:40:26;101445.56;;;3.84;82.08
68859;BME280;55864;49.238;8.092;2023-02-13T05:44:27;101441.38;;;3.80;82.65
68859;BME280;55864;49.238;8.092;2023-02-13T05:46:28;101439.72;;;3.77;82.22
68859;BME280;55864;49.238;8.092;2023-02-13T05:48:30;101442.38;;;3.76;82.49
68859;BME280;55864;49.238;8.092;2023-02-13T05:50:31;101440.75;;;3.72;82.67
68859;BME280;55864;49.238;8.092;2023-02-13T05:52:31;101440.03;;;3.68;82.54
68859;BME280;55864;49.238;8.092;2023-02-13T05:54:32;101436.69;;;3.65;82.46
68859;BME280;55864;49.238;8.092;2023-02-13T05:56:32;101437.50;;;3.65;83.02
68859;BME280;55864;49.238;8.092;2023-02-13T05:58:33;101440.03;;;3.68;82.93
68859;BME280;55864;49.238;8.092;2023-02-13T06:00:34;101439.03;;;3.71;82.21
68859;BME280;55864;49.238;8.092;2023-02-13T06:02:34;101447.63;;;3.73;82.04
68859;BME280;55864;49.238;8.092;2023-02-13T06:04:36;101445.03;;;3.74;81.98
68859;BME280;55864;49.238;8.092;2023-02-13T06:06:37;101445.09;;;3.71;82.03
68859;BME280;55864;49.238;8.092;2023-02-13T06:08:37;101447.75;;;3.70;82.29
68859;BME280;55864;49.238;8.092;2023-02-13T06:10:38;101443.50;;;3.67;82.30
68859;BME280;55864;49.238;8.092;2023-02-13T06:12:39;101440.97;;;3.66;82.50
68859;BME280;55864;49.238;8.092;2023-02-13T06:14:39;101454.75;;;3.68;81.64
68859;BME280;55864;49.238;8.092;2023-02-13T06:16:40;101441.88;;;3.65;82.10
68859;BME280;55864;49.238;8.092;2023-02-13T06:18:40;101443.63;;;3.64;82.23
68859;BME280;55864;49.238;8.092;2023-02-13T06:20:42;101445.28;;;3.65;81.98
68859;BME280;55864;49.238;8.092;2023-02-13T06:22:43;101446.97;;;3.68;82.35
68859;BME280;55864;49.238;8.092;2023-02-13T06:24:46;101447.81;;;3.68;81.77
68859;BME280;55864;49.238;8.092;2023-02-13T06:26:47;101455.69;;;3.65;81.90
68859;BME280;55864;49.238;8.092;2023-02-13T06:28:47;101447.00;;;3.66;82.22
68859;BME280;55864;49.238;8.092;2023-02-13T06:30:48;101448.69;;;3.67;82.35
68859;BME280;55864;49.238;8.092;2023-02-13T06:32:48;101447.88;;;3.67;82.40
68859;BME280;55864;49.238;8.092;2023-02-13T06:34:49;101448.75;;;3.66;82.08
68859;BME280;55864;49.238;8.092;2023-02-13T06:36:51;101444.47;;;3.65;82.27
68859;BME280;55864;49.238;8.092;2023-02-13T06:38:51;101445.41;;;3.62;82.43
68859;BME280;55864;49.238;8.092;2023-02-13T06:40:52;101446.34;;;3.60;83.01
68859;BME280;55864;49.238;8.092;2023-02-13T06:42:52;101444.66;;;3.59;82.67
68859;BME280;55864;49.238;8.092;2023-02-13T06:44:53;101446.34;;;3.60;82.52
68859;BME280;55864;49.238;8.092;2023-02-13T06:46:53;101444.66;;;3.59;82.38
68859;BME280;55864;49.238;8.092;2023-02-13T06:48:54;101447.34;;;3.56;82.37
68859;BME280;55864;49.238;8.092;2023-02-13T06:50:55;101456.97;;;3.52;82.79
68859;BME280;55864;49.238;8.092;2023-02-13T06:52:57;101464.84;;;3.51;82.96
68859;BME280;55864;49.238;8.092;2023-02-13T06:54:57;101457.78;;;3.54;83.22
68859;BME280;55864;49.238;8.092;2023-02-13T06:56:58;101464.69;;;3.55;82.51
68859;BME280;55864;49.238;8.092;2023-02-13T06:58:58;101465.59;;;3.54;83.23
68859;BME280;55864;49.238;8.092;2023-02-13T07:00:59;101463.84;;;3.55;83.63
68859;BME280;55864;49.238;8.092;2023-02-13T07:03:04;101468.28;;;3.51;83.31
68859;BME280;55864;49.238;8.092;2023-02-13T07:05:06;101472.63;;;3.51;83.24
68859;BME280;55864;49.238;8.092;2023-02-13T07:07:06;101467.44;;;3.51;83.35
68859;BME280;55864;49.238;8.092;2023-02-13T07:09:08;101470.03;;;3.51;83.53
68859;BME280;55864;49.238;8.092;2023-02-13T07:11:16;101474.34;;;3.52;83.82
68859;BME280;55864;49.238;8.092;2023-02-13T07:13:16;101468.22;;;3.53;83.38
68859;BME280;55864;49.238;8.092;2023-02-13T07:15:17;101472.53;;;3.54;83.61
68859;BME280;55864;49.238;8.092;2023-02-13T07:17:17;101472.53;;;3.54;83.86
68859;BME280;55864;49.238;8.092;2023-02-13T07:19:18;101476.78;;;3.56;83.67
68859;BME280;55864;49.238;8.092;2023-02-13T07:21:18;101475.03;;;3.57;83.49
68859;BME280;55864;49.238;8.092;2023-02-13T07:23:19;101481.97;;;3.56;83.87
68859;BME280;55864;49.238;8.092;2023-02-13T07:25:21;101480.22;;;3.57;83.44
68859;BME280;55864;49.238;8.092;2023-02-13T07:27:21;101489.81;;;3.55;83.64
68859;BME280;55864;49.238;8.092;2023-02-13T07:29:22;101488.84;;;3.59;84.08
68859;BME280;55864;49.238;8.092;2023-02-13T07:31:22;101486.97;;;3.62;84.73
68859;BME280;55864;49.238;8.092;2023-02-13T07:33:23;101478.19;;;3.66;84.47
68859;BME280;55864;49.238;8.092;2023-02-13T07:35:24;101486.78;;;3.68;84.29
68859;BME280;55864;49.238;8.092;2023-02-13T07:37:26;101484.13;;;3.70;84.25
68859;BME280;55864;49.238;8.092;2023-02-13T07:39:26;101479.75;;;3.72;84.68
68859;BME280;55864;49.238;8.092;2023-02-13T07:41:28;101485.75;;;3.74;84.77
68859;BME280;55864;49.238;8.092;2023-02-13T07:43:29;101486.63;;;3.73;84.34
68859;BME280;55864;49.238;8.092;2023-02-13T07:45:30;101493.53;;;3.74;84.76
68859;BME280;55864;49.238;8.092;2023-02-13T07:47:30;101486.59;;;3.74;84.86
68859;BME280;55864;49.238;8.092;2023-02-13T07:49:32;101484.75;;;3.78;84.99
68859;BME280;55864;49.238;8.092;2023-02-13T07:51:32;101488.97;;;3.80;85.30
68859;BME280;55864;49.238;8.092;2023-02-13T07:53:33;101487.22;;;3.81;85.52
68859;BME280;55864;49.238;8.092;2023-02-13T07:55:35;101486.25;;;3.85;84.65
68859;BME280;55864;49.238;8.092;2023-02-13T07:57:37;101480.16;;;3.86;84.80
68859;BME280;55864;49.238;8.092;2023-02-13T07:59:38;101483.53;;;3.88;85.08
68859;BME280;55864;49.238;8.092;2023-02-13T08:01:38;101486.94;;;3.90;85.63
68859;BME280;55864;49.238;8.092;2023-02-13T08:03:39;101487.84;;;3.89;85.67
68859;BME280;55864;49.238;8.092;2023-02-13T08:05:40;101492.13;;;3.90;86.03
68859;BME280;55864;49.238;8.092;2023-02-13T08:07:40;101491.19;;;3.93;85.72
68859;BME280;55864;49.238;8.092;2023-02-13T08:09:43;101492.91;;;3.92;85.77
68859;BME280;55864;49.238;8.092;2023-02-13T08:11:43;101486.78;;;3.95;85.85
68859;BME280;55864;49.238;8.092;2023-02-13T08:13:45;101488.38;;;3.99;85.83
68859;BME280;55864;49.238;8.092;2023-02-13T08:15:46;101489.94;;;4.04;85.94
68859;BME280;55864;49.238;8.092;2023-02-13T08:17:46;101486.28;;;4.10;85.67
68859;BME280;55864;49.238;8.092;2023-02-13T08:19:47;101480.88;;;4.16;85.59
68859;BME280;55864;49.238;8.092;2023-02-13T08:21:47;101486.59;;;4.25;86.11
68859;BME280;55864;49.238;8.092;2023-02-13T08:23:48;101484.63;;;4.32;85.75
68859;BME280;55864;49.238;8.092;2023-02-13T08:25:49;101483.63;;;4.36;85.15
68859;BME280;55864;49.238;8.092;2023-02-13T08:27:49;101486.16;;;4.37;85.30
68859;BME280;55864;49.238;8.092;2023-02-13T08:29:51;101486.06;;;4.40;84.61
68859;BME280;55864;49.238;8.092;2023-02-13T08:31:52;101483.41;;;4.42;84.65
68859;BME280;55864;49.238;8.092;2023-02-13T08:33:52;101490.16;;;4.47;85.29
68859;BME280;55864;49.238;8.092;2023-02-13T08:35:55;101482.25;;;4.50;84.41
68859;BME280;55864;49.238;8.092;2023-02-13T08:37:55;101483.88;;;4.53;84.43
68859;BME280;55864;49.238;8.092;2023-02-13T08:39:56;101477.66;;;4.57;84.25
68859;BME280;55864;49.238;8.092;2023-02-13T08:41:57;101478.41;;;4.60;84.75
68859;BME280;55864;49.238;8.092;2023-02-13T08:43:57;101482.72;;;4.61;84.96
68859;BME280;55864;49.238;8.092;2023-02-13T08:45:59;101480.72;;;4.68;84.51
68859;BME280;55864;49.238;8.092;2023-02-13T08:48:00;101470.09;;;4.74;83.90
68859;BME280;55864;49.238;8.092;2023-02-13T08:50:00;101468.22;;;4.77;84.16
68859;BME280;55864;49.238;8.092;2023-02-13T08:52:02;101471.69;;;4.78;83.75
68859;BME280;55864;49.238;8.092;2023-02-13T08:54:04;101471.69;;;4.78;84.46
68859;BME280;55864;49.238;8.092;2023-02-13T08:56:05;101468.06;;;4.82;84.58
68859;BME280;55864;49.238;8.092;2023-02-13T08:58:07;101472.25;;;4.86;83.92
68859;BME280;55864;49.238;8.092;2023-02-13T09:00:09;101469.53;;;4.89;84.02
68859;BME280;55864;49.238;8.092;2023-02-13T09:02:13;101475.53;;;4.91;84.22
68859;BME280;55864;49.238;8.092;2023-02-13T09:04:13;101466.78;;;4.94;84.50
68859;BME280;55864;49.238;8.092;2023-02-13T09:06:14;101468.28;;;4.99;84.97
68859;BME280;55864;49.238;8.092;2023-02-13T09:08:15;101474.00;;;5.09;84.19
68859;BME280;55864;49.238;8.092;2023-02-13T09:10:16;101478.91;;;5.16;84.28
68859;BME280;55864;49.238;8.092;2023-02-13T09:12:16;101477.78;;;5.23;84.06
68859;BME280;55864;49.238;8.092;2023-02-13T09:14:17;101481.75;;;5.32;83.96
68859;BME280;55864;49.238;8.092;2023-02-13T09:16:18;101477.03;;;5.41;83.14
68859;BME280;55864;49.238;8.092;2023-02-13T09:18:19;101483.91;;;5.44;82.09
68859;BME280;55864;49.238;8.092;2023-02-13T09:20:20;101483.00;;;5.45;82.68
68859;BME280;55864;49.238;8.092;2023-02-13T09:22:21;101479.34;;;5.49;82.41
68859;BME280;55864;49.238;8.092;2023-02-13T09:24:21;101483.53;;;5.53;82.30
68859;BME280;55864;49.238;8.092;2023-02-13T09:26:22;101493.06;;;5.54;81.90
68859;BME280;55864;49.238;8.092;2023-02-13T09:28:23;101497.28;;;5.56;81.62
68859;BME280;55864;49.238;8.092;2023-02-13T09:30:23;101491.97;;;5.59;81.92
68859;BME280;55864;49.238;8.092;2023-02-13T09:32:24;101488.34;;;5.63;81.64
68859;BME280;55864;49.238;8.092;2023-02-13T09:34:26;101490.75;;;5.68;81.77
68859;BME280;55864;49.238;8.092;2023-02-13T09:36:26;101494.63;;;5.80;82.12
68859;BME280;55864;49.238;8.092;2023-02-13T09:38:27;101495.13;;;5.89;80.74
68859;BME280;55864;49.238;8.092;2023-02-13T09:40:33;101488.94;;;5.92;80.86
68859;BME280;55864;49.238;8.092;2023-02-13T09:42:34;101495.72;;;5.96;81.27
68859;BME280;55864;49.238;8.092;2023-02-13T09:44:38;101487.59;;;6.03;80.44
68859;BME280;55864;49.238;8.092;2023-02-13T09:46:41;101490.00;;;6.08;80.33
68859;BME280;55864;49.238;8.092;2023-02-13T09:48:44;101488.94;;;6.12;79.96
68859;BME280;55864;49.238;8.092;2023-02-13T09:50:48;101488.13;;;6.11;79.61
68859;BME280;55864;49.238;8.092;2023-02-13T09:52:50;101494.16;;;6.12;80.02
68859;BME280;55864;49.238;8.092;2023-02-13T09:54:51;101496.66;;;6.15;80.16
68859;BME280;55864;49.238;8.092;2023-02-13T09:56:55;101493.03;;;6.19;79.51
68859;BME280;55864;49.238;8.092;2023-02-13T09:59:01;101498.03;;;6.23;79.42
68859;BME280;55864;49.238;8.092;2023-02-13T10:01:05;101500.53;;;6.26;79.16
68859;BME280;55864;49.238;8.092;2023-02-13T10:03:19;101498.56;;;6.31;78.15
68859;BME280;55864;49.238;8.092;2023-02-13T10:05:33;101507.34;;;6.29;78.11
68859;BME280;55864;49.238;8.092;2023-02-13T10:07:42;101498.66;;;6.28;78.22
68859;BME280;55864;49.238;8.092;2023-02-13T10:09:53;101498.50;;;6.33;78.21
68859;BME280;55864;49.238;8.092;2023-02-13T10:12:32;101501.81;;;6.36;78.21
68859;BME280;55864;49.238;8.092;2023-02-13T10:14:43;101501.72;;;6.38;77.56
68859;BME280;55864;49.238;8.092;2023-02-13T10:16:48;101502.75;;;6.35;76.95
68859;BME280;55864;49.238;8.092;2023-02-13T10:18:52;101507.19;;;6.33;77.05
68859;BME280;55864;49.238;8.092;2023-02-13T10:20:57;101503.78;;;6.31;77.56
68859;BME280;55864;49.238;8.092;2023-02-13T10:23:11;101514.22;;;6.31;77.43
68859;BME280;55864;49.238;8.092;2023-02-13T10:25:21;101505.53;;;6.31;76.36
68859;BME280;55864;49.238;8.092;2023-02-13T10:27:24;101508.13;;;6.31;76.64
68859;BME280;55864;49.238;8.092;2023-02-13T10:29:35;101506.50;;;6.28;77.22
68859;BME280;55864;49.238;8.092;2023-02-13T10:31:38;101500.63;;;6.23;76.77
68859;BME280;55864;49.238;8.092;2023-02-13T10:33:44;101499.75;;;6.24;77.41
68859;BME280;55864;49.238;8.092;2023-02-13T10:35:51;101499.66;;;6.26;77.51
68859;BME280;55864;49.238;8.092;2023-02-13T10:37:54;101506.47;;;6.30;77.88
68859;BME280;55864;49.238;8.092;2023-02-13T10:39:57;101495.94;;;6.31;77.32
68859;BME280;55864;49.238;8.092;2023-02-13T10:42:04;101504.56;;;6.33;77.42
68859;BME280;55864;49.238;8.092;2023-02-13T10:44:26;101506.91;;;6.39;77.66
68859;BME280;55864;49.238;8.092;2023-02-13T10:46:36;101502.41;;;6.43;77.51
68859;BME280;55864;49.238;8.092;2023-02-13T10:48:46;101502.19;;;6.47;78.02
68859;BME280;55864;49.238;8.092;2023-02-13T10:50:57;101494.16;;;6.52;77.13
68859;BME280;55864;49.238;8.092;2023-02-13T10:53:10;101496.53;;;6.58;77.61
68859;BME280;55864;49.238;8.092;2023-02-13T10:55:28;101502.31;;;6.64;77.78
68859;BME280;55864;49.238;8.092;2023-02-13T10:57:38;101489.06;;;6.69;76.99
68859;BME280;55864;49.238;8.092;2023-02-13T11:00:04;101480.28;;;6.70;76.86